Time;durP1;ratioP1;P1;durP2;ratioP2;P2;SDS_P1;SDS_P2;PMS_P1;PMS_P2;Temp;Humidity;BMP_temperature;BMP_pressure;BME280_temperature;BME280_humidity;BME280_pressure;Samples;Min_cycle;Max_cycle;Signal;HPM_P1;HPM_P2
2023/04/15 00:00:58;;;;;;;4.10;3.28;;;;;;;8.31;100.00;99352.09;5083857;28;20036;-67
2023/04/15 00:03:24;;;;;;;4.38;3.40;;;;;;;8.28;100.00;99340.84;5085183;28;20031;-67
2023/04/15 00:05:49;;;;;;;3.58;3.00;;;;;;;8.34;100.00;99342.94;5085438;28;20028;-67
2023/04/15 00:08:15;;;;;;;4.95;3.35;;;;;;;8.44;100.00;99359.78;5084686;28;20019;-67
2023/04/15 00:10:43;;;;;;;4.40;2.90;;;;;;;8.46;100.00;99363.16;5084755;28;20024;-67
2023/04/15 00:13:09;;;;;;;3.67;3.28;;;;;;;8.45;100.00;99364.97;5084265;28;20039;-66
2023/04/15 00:15:34;;;;;;;3.55;3.00;;;;;;;8.46;100.00;99357.81;5084163;28;20423;-67
2023/04/15 00:18:00;;;;;;;3.42;2.90;;;;;;;8.46;100.00;99358.66;5066445;28;20028;-69
2023/04/15 00:20:25;;;;;;;8.88;3.30;;;;;;;8.47;100.00;99360.34;5083467;28;20433;-69
2023/04/15 00:22:51;;;;;;;3.38;2.90;;;;;;;8.50;100.00;99367.22;5087311;28;20031;-69
2023/04/15 00:25:16;;;;;;;4.43;3.20;;;;;;;8.37;100.00;99342.66;5086633;28;20053;-69
2023/04/15 00:27:42;;;;;;;3.95;2.70;;;;;;;8.53;100.00;99369.59;5086007;28;20478;-69
2023/04/15 00:30:08;;;;;;;4.53;3.35;;;;;;;8.52;100.00;99367.94;5088245;28;20046;-69
2023/04/15 00:32:34;;;;;;;3.65;3.00;;;;;;;8.51;100.00;99367.06;5086108;28;20031;-69
2023/04/15 00:34:59;;;;;;;3.58;3.10;;;;;;;8.51;100.00;99369.75;5063623;28;20119;-69
2023/04/15 00:37:25;;;;;;;3.42;3.13;;;;;;;8.51;100.00;99367.06;5086247;28;20164;-69
2023/04/15 00:39:50;;;;;;;3.67;3.20;;;;;;;8.46;100.00;99364.03;5075438;28;20476;-69
2023/04/15 00:42:18;;;;;;;4.43;3.35;;;;;;;8.49;100.00;99374.41;5085066;28;20024;-69
2023/04/15 00:44:43;;;;;;;4.22;3.10;;;;;;;8.41;100.00;99365.41;5085200;28;20036;-69
2023/04/15 00:47:10;;;;;;;3.55;3.22;;;;;;;8.51;100.00;99387.59;5085382;28;20502;-69
2023/04/15 00:49:36;;;;;;;3.92;3.30;;;;;;;8.51;100.00;99379.59;5085503;28;20502;-69
2023/04/15 00:52:02;;;;;;;3.70;3.22;;;;;;;8.33;100.00;99352.81;5092149;28;20031;-69
2023/04/15 00:54:27;;;;;;;5.55;3.97;;;;;;;8.50;100.00;99375.25;5084979;28;20076;-69
2023/04/15 00:56:53;;;;;;;5.28;3.80;;;;;;;8.41;100.00;99355.56;5070070;28;20019;-69
2023/04/15 00:59:19;;;;;;;5.18;4.18;;;;;;;8.43;100.00;99364.31;5084359;28;20032;-69
2023/04/15 01:01:45;;;;;;;4.90;4.05;;;;;;;8.48;100.00;99374.56;5083940;28;20032;-69
2023/04/15 01:04:11;;;;;;;6.32;4.15;;;;;;;8.48;100.00;99378.06;5074523;28;20032;-69
2023/04/15 01:06:37;;;;;;;5.45;4.68;;;;;;;8.48;100.00;99370.03;5085391;28;20016;-69
2023/04/15 01:09:03;;;;;;;6.30;5.28;;;;;;;8.47;100.00;99376.38;5089416;28;20038;-69
2023/04/15 01:11:29;;;;;;;6.07;4.45;;;;;;;8.47;100.00;99383.53;5067481;28;20054;-69
2023/04/15 01:13:56;;;;;;;6.32;4.95;;;;;;;8.48;100.00;99383.41;5084486;28;20077;-70
2023/04/15 01:16:22;;;;;;;6.75;5.07;;;;;;;8.49;100.00;99382.44;5086055;28;20056;-69
2023/04/15 01:18:48;;;;;;;5.50;4.85;;;;;;;8.31;100.00;99359.25;5090437;28;20059;-69
2023/04/15 01:21:13;;;;;;;5.95;4.82;;;;;;;8.44;100.00;99381.16;5087201;28;20056;-70
2023/04/15 01:23:39;;;;;;;6.50;5.38;;;;;;;8.45;100.00;99382.88;5086323;28;20080;-70
2023/04/15 01:26:07;;;;;;;6.88;4.25;;;;;;;8.39;100.00;99386.94;5084053;28;20489;-70
2023/04/15 01:28:33;;;;;;;7.43;5.32;;;;;;;8.47;100.00;99397.75;5085606;28;20016;-70
2023/04/15 01:31:12;;;;;;;7.35;5.55;;;;;;;8.46;100.00;99392.56;5073920;28;20088;-70
2023/04/15 01:33:42;;;;;;;6.75;5.45;;;;;;;8.48;100.00;99387.91;5085337;28;20036;-69
2023/04/15 01:36:09;;;;;;;8.48;5.28;;;;;;;8.50;100.00;99388.59;5086920;28;20020;-70
2023/04/15 01:38:36;;;;;;;8.25;5.72;;;;;;;8.50;100.00;99386.78;5088261;28;20040;-70
2023/04/15 01:41:03;;;;;;;6.47;4.97;;;;;;;8.30;100.00;99344.22;5090452;28;20467;-69
2023/04/15 01:43:29;;;;;;;7.38;6.40;;;;;;;8.49;100.00;99377.09;5085363;28;20028;-69
2023/04/15 01:45:55;;;;;;;11.45;5.85;;;;;;;8.53;100.00;99381.16;5088480;28;20043;-70
2023/04/15 01:48:21;;;;;;;7.70;6.15;;;;;;;8.46;100.00;99374.72;5085337;28;20028;-70
2023/04/15 01:50:47;;;;;;;8.65;5.93;;;;;;;8.54;100.00;99385.50;5088211;28;20024;-71
2023/04/15 01:53:14;;;;;;;7.22;5.63;;;;;;;8.52;100.00;99386.63;5093498;28;20539;-70
2023/04/15 01:55:40;;;;;;;10.80;6.47;;;;;;;8.53;100.00;99385.63;5094782;28;20027;-69
2023/04/15 01:58:05;;;;;;;9.25;6.55;;;;;;;8.49;100.00;99381.56;5072206;28;20465;-69
2023/04/15 02:00:31;;;;;;;9.32;6.28;;;;;;;8.45;100.00;99382.88;5090552;28;20021;-70
2023/04/15 02:02:58;;;;;;;7.80;5.85;;;;;;;8.45;100.00;99380.19;5090496;28;20023;-70
2023/04/15 02:05:24;;;;;;;7.80;5.75;;;;;;;8.42;100.00;99383.16;5086699;28;20077;-70
2023/04/15 02:07:50;;;;;;;9.70;6.68;;;;;;;8.30;100.00;99365.59;5087626;28;20039;-70
2023/04/15 02:10:15;;;;;;;9.82;6.30;;;;;;;8.32;100.00;99374.31;5066397;28;20036;-70
2023/04/15 02:12:41;;;;;;;8.95;6.55;;;;;;;8.25;100.00;99370.50;5068310;28;20078;-70
2023/04/15 02:15:08;;;;;;;8.45;6.45;;;;;;;8.33;100.00;99392.00;5086555;28;20055;-70
2023/04/15 02:17:36;;;;;;;7.90;5.90;;;;;;;8.31;100.00;99384.16;5086481;28;20582;-70
2023/04/15 02:20:04;;;;;;;8.13;6.22;;;;;;;8.20;100.00;99367.41;5086760;28;20110;-70
2023/04/15 02:22:30;;;;;;;9.38;6.78;;;;;;;8.29;100.00;99379.94;5085751;28;20036;-70
2023/04/15 02:24:55;;;;;;;10.95;6.88;;;;;;;8.26;100.00;99382.91;5086388;28;20380;-70
2023/04/15 02:27:21;;;;;;;10.93;7.90;;;;;;;8.27;100.00;99392.59;5067676;28;20032;-70
2023/04/15 02:29:46;;;;;;;9.70;6.93;;;;;;;8.28;100.00;99391.59;5086356;28;20027;-70
2023/04/15 02:32:12;;;;;;;11.15;6.85;;;;;;;8.30;100.00;99392.31;5085893;28;20024;-67
2023/04/15 02:34:42;;;;;;;10.02;7.55;;;;;;;8.15;100.00;99372.31;5086081;28;20024;-70
2023/04/15 02:37:11;;;;;;;10.25;7.68;;;;;;;8.28;100.00;99392.44;5085965;28;20016;-70
2023/04/15 02:39:37;;;;;;;9.77;7.72;;;;;;;8.31;100.00;99392.16;5086495;28;20181;-70
2023/04/15 02:42:04;;;;;;;12.23;8.43;;;;;;;8.31;100.00;99396.66;5086712;28;20498;-70
2023/04/15 02:44:31;;;;;;;13.13;8.55;;;;;;;8.19;100.00;99368.41;5086230;28;20751;-69
2023/04/15 02:46:57;;;;;;;12.60;9.15;;;;;;;8.31;100.00;99385.97;5086336;28;20059;-70
2023/04/15 02:49:24;;;;;;;10.50;7.57;;;;;;;8.30;100.00;99389.63;5086374;28;20081;-70
2023/04/15 02:51:50;;;;;;;10.95;7.93;;;;;;;8.20;100.00;99370.06;5067846;28;20046;-70
2023/04/15 02:54:19;;;;;;;10.70;7.65;;;;;;;8.22;100.00;99379.66;5068456;28;20036;-70
2023/04/15 02:56:45;;;;;;;12.43;7.47;;;;;;;8.12;100.00;99364.59;5085402;28;20028;-70
2023/04/15 02:59:12;;;;;;;10.07;7.53;;;;;;;8.27;100.00;99385.44;5084442;28;20047;-70
2023/04/15 03:01:37;;;;;;;11.73;8.15;;;;;;;8.28;100.00;99391.59;5085635;28;20032;-70
2023/04/15 03:04:03;;;;;;;10.95;7.43;;;;;;;8.28;100.00;99396.94;5086591;28;20036;-70
2023/04/15 03:06:28;;;;;;;12.02;7.65;;;;;;;8.24;100.00;99401.72;5066990;28;20487;-70
2023/04/15 03:08:54;;;;;;;10.88;7.82;;;;;;;8.20;100.00;99394.09;5085861;28;20027;-70
2023/04/15 03:11:20;;;;;;;10.07;7.88;;;;;;;8.17;100.00;99400.59;5085904;28;20028;-69
2023/04/15 03:13:46;;;;;;;11.05;8.13;;;;;;;8.21;100.00;99404.66;5067081;28;20030;-70
2023/04/15 03:16:11;;;;;;;10.38;7.15;;;;;;;8.18;100.00;99398.75;5085712;28;20024;-70
2023/04/15 03:18:37;;;;;;;10.60;7.32;;;;;;;8.15;100.00;99399.03;5085388;28;20032;-70
2023/04/15 03:21:03;;;;;;;10.63;7.07;;;;;;;8.09;100.00;99392.44;5085792;28;20128;-70
2023/04/15 03:23:30;;;;;;;11.13;7.13;;;;;;;8.16;100.00;99400.72;5085315;28;20491;-70
2023/04/15 03:25:57;;;;;;;10.25;7.55;;;;;;;8.06;100.00;99384.69;5083278;28;20566;-70
2023/04/15 03:28:23;;;;;;;11.90;7.55;;;;;;;8.08;100.00;99395.22;5085050;28;20035;-70
2023/04/15 03:30:48;;;;;;;11.93;8.27;;;;;;;8.06;100.00;99405.22;5085701;28;20035;-70
2023/04/15 03:33:14;;;;;;;12.75;8.43;;;;;;;8.04;100.00;99394.69;5085299;28;20043;-70
2023/04/15 03:35:39;;;;;;;11.40;8.18;;;;;;;8.04;100.00;99399.19;5084953;28;20043;-70
2023/04/15 03:38:05;;;;;;;12.02;8.30;;;;;;;8.03;100.00;99401.00;5085735;28;20094;-70
2023/04/15 03:40:30;;;;;;;10.80;8.38;;;;;;;8.01;100.00;99392.31;5084927;28;20016;-70
2023/04/15 03:42:56;;;;;;;14.68;8.23;;;;;;;7.97;100.00;99398.88;5085294;28;20096;-70
2023/04/15 03:45:21;;;;;;;12.52;8.52;;;;;;;7.88;100.00;99374.88;5084969;28;20035;-70
2023/04/15 03:47:48;;;;;;;11.32;7.82;;;;;;;7.88;100.00;99382.88;5084751;28;20050;-70
2023/04/15 03:50:14;;;;;;;11.80;8.15;;;;;;;7.88;100.00;99383.72;5067285;28;20024;-70
2023/04/15 03:52:40;;;;;;;11.10;7.68;;;;;;;7.99;100.00;99398.75;5065532;28;20039;-70
2023/04/15 03:55:05;;;;;;;10.25;7.65;;;;;;;7.95;100.00;99406.22;5084848;28;20044;-70
2023/04/15 03:57:31;;;;;;;10.82;7.40;;;;;;;7.88;100.00;99382.88;5085094;28;20031;-70
2023/04/15 03:59:56;;;;;;;10.60;7.95;;;;;;;7.84;100.00;99378.81;5090358;28;20026;-70
2023/04/15 04:02:22;;;;;;;10.73;7.40;;;;;;;7.83;100.00;99380.63;5070611;28;20030;-70
2023/04/15 04:04:47;;;;;;;11.35;7.82;;;;;;;7.89;100.00;99397.91;5087390;28;20071;-70
2023/04/15 04:07:17;;;;;;;10.02;7.40;;;;;;;7.81;100.00;99387.94;5084419;28;20040;-70
2023/04/15 04:09:42;;;;;;;12.20;7.43;;;;;;;7.86;100.00;99403.53;5083212;28;20487;-70
2023/04/15 04:12:08;;;;;;;10.13;7.53;;;;;;;7.84;100.00;99400.16;5085036;28;20057;-70
2023/04/15 04:14:33;;;;;;;13.43;7.97;;;;;;;7.78;100.00;99393.56;5084632;28;20040;-70
2023/04/15 04:16:58;;;;;;;10.32;7.53;;;;;;;7.73;100.00;99386.94;5085044;28;20028;-70
2023/04/15 04:19:24;;;;;;;13.02;7.05;;;;;;;7.62;100.00;99376.41;5084200;28;20120;-70
2023/04/15 04:21:50;;;;;;;13.23;7.82;;;;;;;7.71;100.00;99402.25;5067206;28;20028;-70
2023/04/15 04:24:16;;;;;;;9.75;7.50;;;;;;;7.72;100.00;99399.47;5084216;28;20035;-70
2023/04/15 04:26:41;;;;;;;12.23;8.95;;;;;;;7.72;100.00;99403.94;5083995;28;20093;-70
2023/04/15 04:29:06;;;;;;;11.90;9.20;;;;;;;7.69;100.00;99402.41;5084118;28;20031;-71
2023/04/15 04:31:32;;;;;;;15.35;11.18;;;;;;;7.68;100.00;99406.06;5082337;28;20024;-70
2023/04/15 04:33:57;;;;;;;20.98;12.27;;;;;;;7.70;100.00;99400.59;5084515;28;20024;-70
2023/04/15 04:36:23;;;;;;;17.63;12.13;;;;;;;7.65;100.00;99394.81;5083915;28;20353;-70
2023/04/15 04:38:48;;;;;;;16.10;11.25;;;;;;;7.61;100.00;99396.06;5084487;28;20031;-70
2023/04/15 04:41:14;;;;;;;17.95;11.88;;;;;;;7.60;100.00;99400.56;5085443;28;20023;-70
2023/04/15 04:43:39;;;;;;;20.38;12.93;;;;;;;7.68;100.00;99407.88;5088295;28;20510;-70
2023/04/15 04:46:05;;;;;;;17.88;11.85;;;;;;;7.67;100.00;99409.69;5087095;28;20034;-67
2023/04/15 04:48:30;;;;;;;15.10;10.13;;;;;;;7.57;100.00;99381.31;5070579;28;20023;-67
2023/04/15 04:50:56;;;;;;;16.40;9.90;;;;;;;7.76;100.00;99411.53;5068134;28;20391;-67
2023/04/15 04:53:21;;;;;;;13.60;8.68;;;;;;;7.77;100.00;99402.53;5083500;28;20032;-67
2023/04/15 04:55:46;;;;;;;11.52;7.63;;;;;;;7.81;100.00;99408.44;5093805;28;20023;-68
2023/04/15 04:58:12;;;;;;;12.90;8.50;;;;;;;7.71;100.00;99383.59;5088101;28;20020;-67
2023/04/15 05:00:39;;;;;;;14.88;9.02;;;;;;;7.88;100.00;99412.25;5086089;28;20421;-68
2023/04/15 05:03:05;;;;;;;16.42;10.20;;;;;;;7.92;100.00;99411.81;5084270;28;20039;-67
2023/04/15 05:05:30;;;;;;;20.73;11.73;;;;;;;7.85;100.00;99397.34;5083819;28;20495;-67
2023/04/15 05:07:55;;;;;;;20.20;12.68;;;;;;;7.99;100.00;99425.44;5086621;28;20187;-67
2023/04/15 05:10:21;;;;;;;19.33;11.55;;;;;;;8.03;100.00;99419.69;5062897;28;20039;-67
2023/04/15 05:12:46;;;;;;;24.15;14.10;;;;;;;8.06;100.00;99416.75;5082494;28;20057;-67
2023/04/15 05:15:12;;;;;;;17.00;10.68;;;;;;;7.99;100.00;99396.06;5083512;28;20060;-67
2023/04/15 05:17:37;;;;;;;16.42;9.90;;;;;;;8.09;100.00;99418.31;5064176;28;20114;-67
2023/04/15 05:20:03;;;;;;;12.70;7.95;;;;;;;8.25;100.00;99424.78;5084330;28;20423;-67
2023/04/15 05:22:29;;;;;;;14.35;7.95;;;;;;;8.13;100.00;99395.66;5062399;28;20059;-67
2023/04/15 05:24:54;;;;;;;13.75;8.75;;;;;;;8.32;100.00;99427.75;5089760;28;20031;-67
2023/04/15 05:27:21;;;;;;;15.70;9.02;;;;;;;8.31;100.00;99402.00;5084985;28;20442;-67
2023/04/15 05:29:47;;;;;;;12.20;7.63;;;;;;;8.39;100.00;99402.13;5085208;28;20027;-67
2023/04/15 05:32:13;;;;;;;12.88;7.75;;;;;;;8.31;100.00;99377.94;5092517;28;20089;-67
2023/04/15 05:34:38;;;;;;;11.43;7.15;;;;;;;8.31;100.00;99376.13;5084337;28;20040;-67
2023/04/15 05:37:04;;;;;;;11.85;7.75;;;;;;;8.51;100.00;99409.84;5089351;28;20036;-67
2023/04/15 05:39:31;;;;;;;13.70;8.38;;;;;;;8.56;100.00;99412.94;5059744;28;20048;-67
2023/04/15 05:41:57;;;;;;;12.50;8.18;;;;;;;8.56;100.00;99386.22;5083813;28;20099;-67
2023/04/15 05:44:22;;;;;;;15.13;9.13;;;;;;;8.79;100.00;99406.25;5083475;28;20182;-67
2023/04/15 05:46:48;;;;;;;12.23;7.90;;;;;;;9.03;100.00;99413.78;5085955;28;20032;-67
2023/04/15 05:49:13;;;;;;;11.50;7.45;;;;;;;9.15;100.00;99401.88;5084670;28;20047;-67
2023/04/15 05:51:38;;;;;;;10.82;7.00;;;;;;;9.52;100.00;99407.16;5082008;28;20040;-67
2023/04/15 05:54:04;;;;;;;8.68;6.78;;;;;;;9.78;100.00;99400.94;5082874;28;20042;-67
2023/04/15 05:56:30;;;;;;;9.25;5.38;;;;;;;10.10;100.00;99414.69;5064669;28;20031;-67
2023/04/15 05:58:56;;;;;;;7.25;5.35;;;;;;;10.40;100.00;99416.94;5082641;28;20089;-68
2023/04/15 06:01:21;;;;;;;8.35;5.22;;;;;;;10.59;99.95;99403.34;5082833;28;20523;-67
2023/04/15 06:03:47;;;;;;;8.43;5.43;;;;;;;11.09;96.86;99424.94;5082476;28;20036;-67
2023/04/15 06:06:14;;;;;;;8.57;5.20;;;;;;;11.38;94.18;99425.41;5082103;28;20032;-68
2023/04/15 06:08:39;;;;;;;6.30;4.30;;;;;;;11.64;93.17;99420.84;5082941;28;20101;-67
2023/04/15 06:11:05;;;;;;;5.30;3.90;;;;;;;11.78;90.43;99419.38;5082536;28;20071;-67
2023/04/15 06:13:30;;;;;;;6.28;3.00;;;;;;;11.96;87.48;99430.84;5082520;28;20020;-68
2023/04/15 06:15:56;;;;;;;6.70;3.10;;;;;;;12.08;84.68;99440.25;5083695;28;20714;-68
2023/04/15 06:18:22;;;;;;;4.53;3.00;;;;;;;12.19;85.04;99430.03;5086497;28;20596;-67
2023/04/15 06:20:47;;;;;;;4.85;3.30;;;;;;;12.40;83.80;99434.91;5085180;28;20040;-67
2023/04/15 06:23:13;;;;;;;3.92;2.60;;;;;;;12.57;82.40;99433.91;5086637;28;20113;-67
2023/04/15 06:25:38;;;;;;;6.05;2.40;;;;;;;12.79;79.46;99430.53;5085549;28;20111;-67
2023/04/15 06:28:03;;;;;;;4.18;2.65;;;;;;;12.99;78.90;99445.31;5084826;28;20028;-67
2023/04/15 06:30:29;;;;;;;4.88;2.80;;;;;;;13.26;77.61;99434.16;5066986;28;20043;-68
2023/04/15 06:32:55;;;;;;;4.72;3.17;;;;;;;13.56;75.62;99436.06;5086169;28;20066;-67
2023/04/15 06:35:20;;;;;;;4.50;2.55;;;;;;;13.73;75.48;99441.19;5085443;28;20074;-68
2023/04/15 06:37:46;;;;;;;3.67;2.47;;;;;;;14.02;74.09;99443.22;5085679;28;20035;-67
2023/04/15 06:40:12;;;;;;;4.25;2.70;;;;;;;14.32;71.69;99447.78;5085703;28;20024;-68
2023/04/15 06:42:37;;;;;;;5.65;2.60;;;;;;;14.58;69.55;99455.50;5087158;28;20040;-68
2023/04/15 06:45:03;;;;;;;3.65;2.30;;;;;;;14.83;67.11;99452.41;5085841;28;20028;-68
2023/04/15 06:47:28;;;;;;;2.80;2.30;;;;;;;14.97;67.05;99446.22;5085041;28;20078;-67
2023/04/15 06:49:54;;;;;;;3.05;2.40;;;;;;;15.04;64.81;99432.81;5070853;28;20181;-68
2023/04/15 06:52:20;;;;;;;2.78;2.15;;;;;;;15.34;63.66;99448.00;5092498;28;20063;-67
2023/04/15 06:54:45;;;;;;;4.25;2.65;;;;;;;15.38;65.52;99439.38;5086558;28;20458;-67
2023/04/15 06:57:11;;;;;;;2.60;2.10;;;;;;;15.50;64.21;99448.69;5065037;28;20515;-68
2023/04/15 06:59:36;;;;;;;3.20;2.53;;;;;;;15.57;64.08;99446.06;5085872;28;20028;-67
2023/04/15 07:02:02;;;;;;;4.88;1.90;;;;;;;15.57;62.83;99454.19;5085498;28;20055;-68
2023/04/15 07:04:27;;;;;;;2.35;1.90;;;;;;;15.62;61.98;99455.31;5067579;28;20032;-67
2023/04/15 07:06:54;;;;;;;2.55;1.90;;;;;;;15.66;61.71;99456.63;5085508;28;20095;-68
2023/04/15 07:09:21;;;;;;;2.97;2.10;;;;;;;15.55;62.08;99467.88;5067150;28;20693;-68
2023/04/15 07:11:46;;;;;;;5.07;2.10;;;;;;;15.45;62.56;99461.09;5088347;28;20470;-68
2023/04/15 07:14:12;;;;;;;2.67;2.00;;;;;;;15.37;63.08;99467.44;5089840;28;20044;-67
2023/04/15 07:16:37;;;;;;;2.22;2.00;;;;;;;15.23;62.68;99460.13;5087226;28;20078;-69
2023/04/15 07:19:03;;;;;;;3.17;2.28;;;;;;;15.18;62.98;99465.25;5085239;28;20420;-69
2023/04/15 07:21:28;;;;;;;2.00;1.88;;;;;;;15.02;63.10;99454.59;5084385;28;20032;-70
2023/04/15 07:23:54;;;;;;;2.42;1.88;;;;;;;14.86;62.74;99457.44;5084972;28;20422;-69
2023/04/15 07:26:19;;;;;;;2.38;1.90;;;;;;;14.76;64.11;99464.97;5085016;28;20491;-69
2023/04/15 07:28:46;;;;;;;4.13;1.67;;;;;;;14.79;64.32;99480.81;5083414;28;20048;-70
2023/04/15 07:31:11;;;;;;;3.88;2.05;;;;;;;14.64;63.93;99465.59;5087227;28;20085;-69
2023/04/15 07:33:37;;;;;;;3.42;2.10;;;;;;;14.54;64.15;99479.31;5082464;28;20032;-68
2023/04/15 07:36:02;;;;;;;1.55;1.45;;;;;;;14.45;65.33;99477.69;5085373;28;20019;-69
2023/04/15 07:38:28;;;;;;;2.78;1.60;;;;;;;14.32;66.69;99480.13;5066112;28;20041;-70
2023/04/15 07:40:54;;;;;;;3.08;1.70;;;;;;;14.23;67.28;99483.94;5083430;28;20518;-70
2023/04/15 07:43:20;;;;;;;1.23;1.00;;;;;;;14.04;66.52;99465.47;5066935;28;20071;-69
2023/04/15 07:45:46;;;;;;;1.98;1.50;;;;;;;14.00;67.31;99483.03;5084113;28;20032;-70
2023/04/15 07:48:12;;;;;;;2.22;1.15;;;;;;;13.97;66.46;99479.84;5084782;28;20686;-70
2023/04/15 07:50:38;;;;;;;2.63;1.00;;;;;;;13.85;65.69;99467.75;5083554;28;20097;-70
2023/04/15 07:53:04;;;;;;;1.98;1.20;;;;;;;13.91;66.75;99494.00;5066229;28;20085;-70
2023/04/15 07:55:29;;;;;;;1.80;1.20;;;;;;;13.88;65.80;99495.22;5083775;28;20049;-70
2023/04/15 07:57:56;;;;;;;3.28;1.50;;;;;;;13.86;66.01;99488.31;5084718;28;20536;-70
2023/04/15 08:00:21;;;;;;;2.20;1.15;;;;;;;13.86;66.03;99486.44;5084800;28;20396;-70
2023/04/15 08:02:47;;;;;;;2.97;1.48;;;;;;;13.86;65.05;99491.84;5084693;28;20028;-69
2023/04/15 08:05:13;;;;;;;3.65;1.20;;;;;;;13.83;65.45;99489.47;5084099;28;20155;-70
2023/04/15 08:07:39;;;;;;;1.60;1.13;;;;;;;13.85;65.85;99487.47;5066593;28;20031;-70
2023/04/15 08:10:05;;;;;;;1.23;1.08;;;;;;;13.86;65.50;99480.22;5066684;28;20035;-70
2023/04/15 08:12:31;;;;;;;2.90;1.30;;;;;;;14.04;66.37;99494.28;5062762;28;20075;-69
2023/04/15 08:14:56;;;;;;;3.60;1.27;;;;;;;14.26;64.26;99494.38;5082328;28;20050;-69
2023/04/15 08:17:23;;;;;;;1.33;1.02;;;;;;;14.41;64.20;99491.75;5084395;28;20024;-70
2023/04/15 08:19:48;;;;;;;2.78;1.00;;;;;;;14.60;63.55;99494.78;5084243;28;20407;-70
2023/04/15 08:22:14;;;;;;;1.60;1.25;;;;;;;14.73;62.23;99473.44;5083144;28;20040;-70
2023/04/15 08:24:40;;;;;;;1.45;0.93;;;;;;;15.40;60.33;99487.84;5084780;28;20108;-69
2023/04/15 08:27:06;;;;;;;2.42;1.20;;;;;;;15.82;58.84;99461.81;5084711;28;20028;-68
2023/04/15 08:29:33;;;;;;;1.80;1.10;;;;;;;16.80;56.06;99481.03;5084606;28;20069;-67
2023/04/15 08:32:00;;;;;;;1.50;0.95;;;;;;;17.91;52.66;99482.66;5066620;28;20111;-67
2023/04/15 08:34:25;;;;;;;2.75;1.02;;;;;;;18.81;50.27;99464.13;5065807;28;20036;-67
2023/04/15 08:36:51;;;;;;;1.38;0.90;;;;;;;19.94;46.95;99479.06;5084828;28;20035;-67
2023/04/15 08:39:17;;;;;;;1.65;0.90;;;;;;;20.84;45.00;99478.81;5083599;28;20496;-68
2023/04/15 08:41:49;;;;;;;1.45;1.10;;;;;;;21.53;42.65;99479.50;5084534;28;20103;-68
2023/04/15 08:44:17;;;;;;;1.35;0.80;;;;;;;21.69;41.84;99476.19;5066526;28;20036;-67
2023/04/15 08:46:43;;;;;;;2.15;1.02;;;;;;;22.45;39.98;99469.19;5083822;28;20020;-68
2023/04/15 08:49:12;;;;;;;2.08;0.80;;;;;;;22.96;38.81;99452.25;5084322;28;20035;-67
2023/04/15 08:51:39;;;;;;;1.77;0.80;;;;;;;23.86;36.93;99468.13;5084253;28;20028;-67
2023/04/15 08:54:05;;;;;;;1.25;0.80;;;;;;;24.00;36.93;99473.16;5083610;28;20119;-68
2023/04/15 08:56:31;;;;;;;0.80;0.77;;;;;;;24.38;36.32;99459.66;5086028;28;20016;-69
2023/04/15 08:58:59;;;;;;;1.02;0.60;;;;;;;24.66;34.83;99469.81;5086334;28;20047;-68
2023/04/15 09:01:25;;;;;;;1.25;0.63;;;;;;;24.09;35.69;99463.44;5086476;28;20036;-69
2023/04/15 09:03:53;;;;;;;1.38;0.70;;;;;;;23.10;37.33;99461.91;5086165;28;20020;-68
2023/04/15 09:06:20;;;;;;;1.80;0.70;;;;;;;22.55;37.45;99477.72;5086309;28;20028;-67
2023/04/15 09:08:46;;;;;;;1.77;0.82;;;;;;;21.81;38.95;99474.41;5085818;28;20024;-68
2023/04/15 09:11:12;;;;;;;0.90;0.80;;;;;;;21.33;39.98;99478.88;5086453;28;20024;-68
2023/04/15 09:13:37;;;;;;;0.85;0.60;;;;;;;20.76;41.63;99490.00;5085801;28;20085;-68
2023/04/15 09:16:05;;;;;;;1.75;0.90;;;;;;;20.18;42.70;99487.38;5085549;28;20036;-68
2023/04/15 09:18:32;;;;;;;0.73;0.70;;;;;;;19.64;43.04;99495.06;5085622;28;20071;-67
2023/04/15 09:21:08;;;;;;;1.27;0.60;;;;;;;19.09;43.94;99481.91;5086382;28;20043;-68
2023/04/15 09:23:35;;;;;;;3.08;0.80;;;;;;;18.82;45.37;99496.53;5085955;28;20032;-67
2023/04/15 09:26:04;;;;;;;1.13;0.70;;;;;;;18.70;45.83;99487.31;5085816;28;20132;-67
2023/04/15 09:28:30;;;;;;;0.75;0.60;;;;;;;18.42;45.97;99478.50;5085800;28;20019;-69
2023/04/15 09:31:00;;;;;;;1.67;0.98;;;;;;;18.38;46.95;99496.22;5086202;28;20674;-68
2023/04/15 09:33:28;;;;;;;1.33;0.60;;;;;;;18.34;46.44;99494.94;5086073;28;20090;-68
2023/04/15 09:35:57;;;;;;;0.65;0.60;;;;;;;18.30;45.71;99492.81;5085362;28;20039;-68
2023/04/15 09:38:23;;;;;;;0.75;0.50;;;;;;;18.33;45.60;99492.41;5066085;28;20055;-67
2023/04/15 09:40:48;;;;;;;1.60;0.40;;;;;;;18.46;45.07;99500.63;5065619;28;20070;-68
2023/04/15 09:43:15;;;;;;;1.02;0.70;;;;;;;18.34;45.76;99492.22;5084502;28;20028;-68
2023/04/15 09:45:47;;;;;;;1.95;0.70;;;;;;;18.27;45.44;99498.66;5065673;28;20077;-68
2023/04/15 09:48:22;;;;;;;2.92;0.70;;;;;;;18.06;45.66;99500.47;4385163;28;10001123;-67
2023/04/15 09:50:49;;;;;;;0.93;0.63;;;;;;;17.85;46.87;99505.16;5087293;28;20078;-68
2023/04/15 09:53:19;;;;;;;0.63;0.60;;;;;;;17.68;46.24;99487.56;5072778;28;20059;-68
2023/04/15 09:55:56;;;;;;;1.33;0.63;;;;;;;17.47;46.98;99503.88;5087988;28;20036;-69
2023/04/15 09:58:24;;;;;;;0.80;0.80;;;;;;;17.36;47.95;99507.13;5091182;28;20387;-69
2023/04/15 10:00:52;;;;;;;3.25;0.80;;;;;;;17.18;49.02;99510.31;5090967;28;20032;-68
2023/04/15 10:03:23;;;;;;;2.55;1.00;;;;;;;17.03;49.98;99509.56;5090602;28;20024;-69
2023/04/15 10:05:50;;;;;;;1.92;0.90;;;;;;;16.93;51.18;99514.47;5088641;28;20035;-67
2023/04/15 10:08:18;;;;;;;0.90;0.82;;;;;;;16.86;51.94;99499.22;5089454;28;20391;-67
2023/04/15 10:10:45;;;;;;;1.02;0.93;;;;;;;16.88;51.87;99516.94;5090037;28;20525;-67
2023/04/15 10:13:13;;;;;;;1.05;0.80;;;;;;;16.86;50.63;99505.44;5090281;28;20054;-67
2023/04/15 10:15:42;;;;;;;0.98;0.80;;;;;;;16.74;51.11;99501.63;5090466;28;20499;-68
2023/04/15 10:18:10;;;;;;;2.30;0.90;;;;;;;16.70;51.53;99510.31;5090582;28;20555;-67
2023/04/15 10:20:36;;;;;;;0.80;0.80;;;;;;;16.63;51.45;99512.94;5090499;28;20027;-67
2023/04/15 10:23:03;;;;;;;2.17;0.90;;;;;;;16.53;52.42;99522.41;5090791;28;20101;-68
2023/04/15 10:25:29;;;;;;;0.98;0.88;;;;;;;16.31;53.05;99526.09;5089654;28;20040;-67
2023/04/15 10:27:56;;;;;;;1.70;0.65;;;;;;;16.23;54.64;99534.31;5071980;28;20062;-67
2023/04/15 10:30:22;;;;;;;2.42;0.50;;;;;;;16.16;55.55;99538.81;5090685;28;20032;-67
2023/04/15 10:32:49;;;;;;;1.40;0.65;;;;;;;16.04;56.31;99541.16;5072537;28;20039;-67
2023/04/15 10:35:15;;;;;;;0.90;0.80;;;;;;;15.72;57.32;99507.22;5090483;28;20054;-67
2023/04/15 10:37:40;;;;;;;1.42;0.90;;;;;;;15.68;58.71;99532.94;5090179;28;20024;-68
2023/04/15 10:40:33;;;;;;;0.93;0.82;;;;;;;15.77;60.05;99548.06;5090205;28;20034;-68
2023/04/15 10:43:01;;;;;;;0.75;0.75;;;;;;;15.72;60.22;99555.06;5079448;28;20446;-67
2023/04/15 10:45:27;;;;;;;1.00;0.73;;;;;;;15.59;60.36;99557.56;5089737;28;20384;-68
2023/04/15 10:48:00;;;;;;;1.05;0.93;;;;;;;15.51;61.26;99560.38;5090321;28;20024;-68
2023/04/15 10:50:27;;;;;;;2.15;1.02;;;;;;;15.40;63.79;99566.19;5090034;28;20059;-68
2023/04/15 10:52:52;;;;;;;3.35;1.02;;;;;;;15.37;65.56;99575.50;5090377;28;20043;-67
2023/04/15 10:55:26;;;;;;;2.63;1.15;;;;;;;15.26;67.62;99572.38;5071151;28;20034;-68
2023/04/15 10:58:00;;;;;;;1.40;1.30;;;;;;;15.21;70.18;99572.94;5070349;28;20087;-68
2023/04/15 11:00:28;;;;;;;1.67;1.50;;;;;;;15.28;70.75;99571.16;5088397;28;20344;-68
2023/04/15 11:02:55;;;;;;;1.83;1.20;;;;;;;15.30;70.65;99571.00;5088370;28;20364;-67
2023/04/15 11:05:41;;;;;;;1.73;1.00;;;;;;;15.31;69.26;99578.06;5088858;28;20028;-68
2023/04/15 11:08:11;;;;;;;1.27;1.10;;;;;;;15.26;68.27;99564.28;5086286;28;20036;-67
2023/04/15 11:10:36;;;;;;;3.13;1.40;;;;;;;15.28;68.40;99568.47;5069918;28;20108;-67
2023/04/15 11:13:25;;;;;;;3.42;1.40;;;;;;;15.11;68.31;99547.19;5088924;28;20418;-67
2023/04/15 11:15:56;;;;;;;2.35;1.30;;;;;;;15.22;67.15;99571.91;5089145;28;20031;-68
2023/04/15 11:18:30;;;;;;;1.20;1.00;;;;;;;15.19;67.28;99576.84;5088264;28;20052;-68
2023/04/15 11:21:01;;;;;;;2.50;1.10;;;;;;;15.14;67.73;99579.22;5088909;28;20044;-68
2023/04/15 11:23:36;;;;;;;2.03;1.20;;;;;;;15.10;67.67;99581.47;5088194;28;20040;-68
2023/04/15 11:26:05;;;;;;;1.52;1.02;;;;;;;15.01;66.57;99579.84;5085545;28;20159;-66